createdAt,value
2018-06-27T00:01:29.564Z,61.80
2018-06-27T00:03:58.198Z,61.60
2018-06-27T00:06:26.770Z,61.70
2018-06-27T00:08:55.883Z,61.90
2018-06-27T00:11:24.965Z,62.00
2018-06-27T00:13:54.494Z,62.20
2018-06-27T00:16:23.055Z,62.00
2018-06-27T00:18:51.587Z,61.80
2018-06-27T00:21:20.223Z,61.60
2018-06-27T00:23:48.773Z,61.70
2018-06-27T00:26:17.356Z,61.70
2018-06-27T00:28:46.058Z,61.60
2018-06-27T00:31:14.663Z,61.40
2018-06-27T00:33:43.276Z,61.70
2018-06-27T00:36:11.984Z,61.90
2018-06-27T00:38:40.524Z,61.70
2018-06-27T00:41:09.306Z,62.00
2018-06-27T00:43:37.989Z,62.10
2018-06-27T00:46:06.552Z,61.70
2018-06-27T00:48:35.416Z,61.60
2018-06-27T00:51:03.948Z,61.50
2018-06-27T00:53:37.813Z,61.10
2018-06-27T00:56:06.673Z,61.00
2018-06-27T00:58:35.232Z,60.70
2018-06-27T01:01:03.867Z,60.90
2018-06-27T01:03:32.467Z,60.60
2018-06-27T01:06:01.051Z,61.10
2018-06-27T01:08:29.615Z,60.90
2018-06-27T01:10:58.513Z,61.00
2018-06-27T01:13:27.074Z,61.00
2018-06-27T01:15:55.649Z,60.90
2018-06-27T01:18:24.189Z,61.20
2018-06-27T01:23:20.873Z,61.50
2018-06-27T01:25:49.405Z,61.10
2018-06-27T01:28:17.986Z,61.10
2018-06-27T01:30:46.547Z,61.10
2018-06-27T01:33:15.168Z,61.00
2018-06-27T01:35:43.683Z,61.00
2018-06-27T01:38:12.787Z,61.00
2018-06-27T01:40:41.384Z,60.90
2018-06-27T01:43:09.881Z,61.20
2018-06-27T01:45:38.464Z,61.20
2018-06-27T01:48:07.033Z,61.00
2018-06-27T01:50:36.063Z,60.90
2018-06-27T01:53:04.932Z,61.10
2018-06-27T01:55:33.561Z,61.20
2018-06-27T01:58:02.179Z,61.50
2018-06-27T02:00:30.755Z,61.40
2018-06-27T02:02:59.420Z,61.30
2018-06-27T02:05:27.940Z,61.20
2018-06-27T02:07:56.535Z,61.10
2018-06-27T02:10:25.410Z,61.10
2018-06-27T02:12:54.016Z,61.20
2018-06-27T02:15:22.555Z,61.10
2018-06-27T02:17:51.151Z,60.70
2018-06-27T02:20:19.637Z,60.30
2018-06-27T02:22:48.259Z,60.20
2018-06-27T02:25:17.107Z,60.30
2018-06-27T02:27:45.724Z,60.30
2018-06-27T02:30:14.592Z,60.20
2018-06-27T02:32:43.169Z,60.20
2018-06-27T02:35:11.863Z,60.00
2018-06-27T02:37:40.541Z,60.10
2018-06-27T02:40:09.663Z,60.00
2018-06-27T02:42:38.230Z,60.20
2018-06-27T02:45:06.827Z,60.20
2018-06-27T02:47:35.348Z,60.00
2018-06-27T02:52:33.024Z,59.90
2018-06-27T02:55:01.642Z,60.00
2018-06-27T02:57:30.985Z,59.90
2018-06-27T02:59:59.754Z,59.90
2018-06-27T03:02:28.854Z,59.90
2018-06-27T03:04:57.535Z,59.60
2018-06-27T03:07:26.084Z,59.50
2018-06-27T03:09:54.693Z,59.60
2018-06-27T03:12:23.276Z,59.80
2018-06-27T03:14:52.648Z,59.80
2018-06-27T03:17:21.296Z,60.10
2018-06-27T03:19:49.879Z,60.00
2018-06-27T03:22:18.660Z,59.90
2018-06-27T03:24:47.335Z,59.80
2018-06-27T03:27:15.878Z,59.80
2018-06-27T03:32:12.983Z,60.00
2018-06-27T03:34:41.557Z,59.80
2018-06-27T03:37:10.681Z,59.90
2018-06-27T03:39:39.347Z,60.00
2018-06-27T03:42:20.766Z,59.90
2018-06-27T03:44:57.020Z,59.60
2018-06-27T03:47:25.656Z,59.70
2018-06-27T03:49:54.395Z,59.60
2018-06-27T03:52:23.315Z,59.70
2018-06-27T03:54:51.881Z,59.80
2018-06-27T03:57:20.747Z,59.80
2018-06-27T03:59:49.335Z,59.70
2018-06-27T04:02:18.087Z,59.50
2018-06-27T04:04:46.608Z,59.30
2018-06-27T04:07:15.511Z,59.40
2018-06-27T04:09:44.029Z,59.50
2018-06-27T04:12:12.610Z,59.60
2018-06-27T04:14:41.391Z,59.90
2018-06-27T04:17:10.231Z,59.90
2018-06-27T04:19:38.827Z,59.70
2018-06-27T04:22:07.367Z,60.00
2018-06-27T04:24:35.879Z,60.10
2018-06-27T04:27:04.724Z,60.30
2018-06-27T04:29:33.268Z,60.20
2018-06-27T04:32:01.773Z,60.10
2018-06-27T04:34:30.414Z,59.60
2018-06-27T04:36:59.229Z,59.60
2018-06-27T04:39:28.864Z,59.50
2018-06-27T04:41:57.455Z,59.60
2018-06-27T04:44:26.066Z,59.90
2018-06-27T04:46:54.622Z,60.00
2018-06-27T04:49:23.217Z,60.20
2018-06-27T04:51:51.787Z,60.30
2018-06-27T04:54:20.474Z,60.60
2018-06-27T04:59:18.491Z,60.20
2018-06-27T05:01:47.123Z,60.00
2018-06-27T05:04:16.198Z,60.00
2018-06-27T05:06:45.414Z,59.90
2018-06-27T05:09:14.133Z,59.90
2018-06-27T05:14:10.996Z,60.00
2018-06-27T05:16:39.989Z,59.50
2018-06-27T05:19:08.537Z,59.30
2018-06-27T05:21:37.579Z,59.30
2018-06-27T05:24:06.253Z,59.40
2018-06-27T05:26:35.145Z,59.60
2018-06-27T05:29:03.726Z,59.60
2018-06-27T05:31:32.416Z,59.70
2018-06-27T05:34:01.316Z,59.10
2018-06-27T05:36:29.925Z,58.80
2018-06-27T05:38:58.521Z,58.70
2018-06-27T05:41:27.165Z,58.30
2018-06-27T05:43:56.826Z,58.30
2018-06-27T05:46:25.459Z,59.00
2018-06-27T05:48:54.961Z,59.30
2018-06-27T05:51:24.775Z,58.60
2018-06-27T05:53:53.494Z,58.20
2018-06-27T05:56:23.172Z,58.10
2018-06-27T05:58:51.811Z,58.00
2018-06-27T06:01:21.007Z,58.10
2018-06-27T06:03:49.676Z,58.30
2018-06-27T06:06:18.334Z,58.60
2018-06-27T06:08:47.399Z,58.60
2018-06-27T06:11:16.264Z,58.90
2018-06-27T06:13:45.108Z,58.70
2018-06-27T06:16:13.805Z,58.50
2018-06-27T06:18:42.593Z,58.40
2018-06-27T06:21:11.348Z,58.20
2018-06-27T06:23:40.366Z,58.10
2018-06-27T06:26:09.289Z,58.00
2018-06-27T06:28:38.090Z,57.80
2018-06-27T06:31:06.987Z,57.80
2018-06-27T06:33:36.161Z,57.80
2018-06-27T06:36:04.828Z,57.70
2018-06-27T06:38:33.533Z,57.80
2018-06-27T06:41:02.328Z,58.10
2018-06-27T06:43:31.087Z,57.90
2018-06-27T06:46:00.202Z,57.80
2018-06-27T06:48:30.300Z,57.70
2018-06-27T06:50:59.139Z,57.40
2018-06-27T06:53:28.755Z,57.20
2018-06-27T06:55:57.536Z,56.90
2018-06-27T06:58:27.368Z,57.10
2018-06-27T07:00:55.957Z,56.40
2018-06-27T07:03:24.558Z,56.30
2018-06-27T07:05:53.480Z,55.80
2018-06-27T07:08:22.472Z,55.50
2018-06-27T07:10:51.536Z,55.30
2018-06-27T07:13:20.206Z,55.10
2018-06-27T07:15:48.956Z,54.80
2018-06-27T07:18:18.578Z,54.60
2018-06-27T07:20:48.083Z,54.30
2018-06-27T07:23:16.686Z,54.00
2018-06-27T07:25:45.309Z,53.80
2018-06-27T07:28:14.017Z,53.60
2018-06-27T07:30:43.026Z,53.50
2018-06-27T07:33:11.825Z,53.20
2018-06-27T07:35:40.929Z,53.00
2018-06-27T07:38:09.782Z,52.70
2018-06-27T07:40:38.420Z,52.50
2018-06-27T07:43:07.262Z,52.20
2018-06-27T07:45:35.840Z,51.90
2018-06-27T07:48:04.653Z,51.40
2018-06-27T07:50:33.701Z,51.10
2018-06-27T07:53:02.577Z,50.90
2018-06-27T07:55:32.125Z,50.50
2018-06-27T07:58:01.052Z,50.60
2018-06-27T08:00:29.665Z,50.40
2018-06-27T08:02:58.973Z,50.70
2018-06-27T08:05:27.573Z,50.70
2018-06-27T08:07:56.473Z,50.80
2018-06-27T08:10:25.638Z,51.00
2018-06-27T08:12:54.516Z,50.80
2018-06-27T08:15:24.130Z,50.60
2018-06-27T08:17:52.912Z,50.00
2018-06-27T08:20:21.713Z,50.10
2018-06-27T08:22:50.612Z,49.70
2018-06-27T08:25:19.855Z,49.60
2018-06-27T08:27:48.895Z,49.80
2018-06-27T08:30:17.569Z,49.90
2018-06-27T08:32:46.809Z,49.60
2018-06-27T08:35:16.631Z,49.60
2018-06-27T08:37:46.582Z,49.80
2018-06-27T08:40:15.514Z,49.80
2018-06-27T08:42:44.739Z,49.60
2018-06-27T08:45:13.594Z,49.40
2018-06-27T08:47:43.264Z,49.60
2018-06-27T08:50:12.704Z,49.90
2018-06-27T08:52:41.649Z,50.30
2018-06-27T08:55:10.737Z,50.60
2018-06-27T08:57:39.436Z,50.60
2018-06-27T09:00:08.289Z,50.80
2018-06-27T09:02:37.305Z,51.00
2018-06-27T09:05:06.967Z,51.10
2018-06-27T09:07:35.765Z,51.00
2018-06-27T09:10:04.912Z,51.10
2018-06-27T09:12:35.432Z,51.20
2018-06-27T09:15:04.560Z,51.00
2018-06-27T09:17:33.228Z,51.30
2018-06-27T09:20:02.120Z,51.10
2018-06-27T09:22:30.887Z,50.30
2018-06-27T09:24:59.900Z,50.40
2018-06-27T09:27:28.895Z,50.20
2018-06-27T09:29:58.133Z,50.60
2018-06-27T09:34:55.151Z,50.40
2018-06-27T09:37:24.241Z,50.50
2018-06-27T09:39:52.974Z,50.50
2018-06-27T09:42:21.831Z,50.40
2018-06-27T09:44:51.193Z,50.70
2018-06-27T09:47:20.008Z,50.80
2018-06-27T09:49:48.830Z,50.80
2018-06-27T09:52:17.656Z,51.00
2018-06-27T09:54:46.901Z,50.50
2018-06-27T09:57:15.937Z,50.10
2018-06-27T09:59:45.079Z,50.00
2018-06-27T10:02:13.906Z,49.30
2018-06-27T10:04:43.676Z,49.10
2018-06-27T10:07:13.819Z,48.20
2018-06-27T10:09:42.609Z,47.30
2018-06-27T10:12:11.894Z,46.70
2018-06-27T10:14:41.247Z,46.70
2018-06-27T10:17:09.964Z,47.70
2018-06-27T10:19:38.928Z,48.80
2018-06-27T10:22:08.083Z,49.10
2018-06-27T10:24:36.709Z,49.40
2018-06-27T10:27:05.411Z,49.40
2018-06-27T10:29:34.543Z,49.00
2018-06-27T10:32:03.928Z,48.50
2018-06-27T10:34:32.697Z,49.00
2018-06-27T10:37:01.481Z,48.50
2018-06-27T10:39:30.952Z,48.20
2018-06-27T10:41:59.985Z,48.40
2018-06-27T10:44:28.703Z,47.80
2018-06-27T10:46:58.083Z,48.10
2018-06-27T10:49:26.973Z,48.00
2018-06-27T10:51:55.875Z,47.10
2018-06-27T10:54:24.463Z,46.60
2018-06-27T10:56:54.169Z,46.70
2018-06-27T10:59:22.700Z,45.00
2018-06-27T11:01:52.044Z,45.10
2018-06-27T11:04:21.457Z,46.20
2018-06-27T11:06:51.402Z,46.10
2018-06-27T11:09:19.991Z,44.50
2018-06-27T11:11:49.515Z,45.00
2018-06-27T11:14:19.092Z,43.20
2018-06-27T11:16:47.955Z,42.50
2018-06-27T11:19:17.695Z,42.50
2018-06-27T11:21:46.547Z,41.80
2018-06-27T11:24:16.497Z,42.90
2018-06-27T11:26:45.328Z,43.20
2018-06-27T11:29:14.366Z,41.10
2018-06-27T11:31:43.822Z,41.00
2018-06-27T11:34:12.487Z,41.70
2018-06-27T11:36:41.267Z,41.30
2018-06-27T11:39:12.052Z,41.30
2018-06-27T11:41:41.208Z,40.90
2018-06-27T11:44:10.294Z,39.50
2018-06-27T11:46:39.273Z,39.10
2018-06-27T11:49:08.607Z,40.00
2018-06-27T11:51:37.480Z,39.80
2018-06-27T11:54:06.263Z,40.20
2018-06-27T11:56:34.984Z,40.80
2018-06-27T11:59:03.779Z,41.20
2018-06-27T12:01:32.558Z,40.70
2018-06-27T12:04:01.232Z,39.60
2018-06-27T12:06:30.288Z,38.80
2018-06-27T12:08:59.026Z,38.80
2018-06-27T12:11:28.601Z,39.20
2018-06-27T12:13:58.191Z,39.50
2018-06-27T12:16:27.457Z,38.90
2018-06-27T12:21:25.027Z,38.90
2018-06-27T12:23:54.470Z,38.50
2018-06-27T12:26:23.357Z,38.50
2018-06-27T12:28:52.483Z,39.60
2018-06-27T12:31:22.140Z,39.10
2018-06-27T12:33:50.891Z,40.00
2018-06-27T12:36:19.918Z,40.40
2018-06-27T12:38:48.868Z,40.20
2018-06-27T12:41:18.041Z,39.70
2018-06-27T12:43:47.258Z,40.20
2018-06-27T12:46:16.975Z,38.70
2018-06-27T12:48:46.128Z,39.30
2018-06-27T12:51:15.634Z,39.40
2018-06-27T12:53:44.576Z,38.50
2018-06-27T12:56:13.727Z,38.90
2018-06-27T12:58:43.059Z,37.60
2018-06-27T13:01:12.016Z,37.60
2018-06-27T13:03:40.664Z,38.00
2018-06-27T13:06:09.415Z,37.80
2018-06-27T13:08:38.021Z,36.20
2018-06-27T13:11:07.288Z,35.40
2018-06-27T13:13:36.596Z,36.60
2018-06-27T13:16:05.803Z,35.00
2018-06-27T13:18:35.884Z,35.80
2018-06-27T13:21:04.637Z,35.50
2018-06-27T13:23:34.219Z,34.90
2018-06-27T13:26:03.103Z,35.80
2018-06-27T13:28:32.207Z,35.40
2018-06-27T13:31:01.607Z,34.30
2018-06-27T13:33:30.766Z,35.70
2018-06-27T13:36:00.809Z,34.50
2018-06-27T13:38:30.627Z,33.90
2018-06-27T13:41:00.133Z,33.80
2018-06-27T13:43:29.251Z,34.60
2018-06-27T13:45:58.224Z,35.20
2018-06-27T13:48:27.349Z,34.90
2018-06-27T13:50:56.281Z,34.80
2018-06-27T13:53:27.027Z,36.10
2018-06-27T13:55:55.996Z,35.00
2018-06-27T13:58:24.643Z,34.90
2018-06-27T14:00:53.742Z,35.00
2018-06-27T14:03:22.482Z,34.60
2018-06-27T14:05:51.492Z,34.10
2018-06-27T14:08:20.449Z,33.90
2018-06-27T14:10:49.788Z,34.50
2018-06-27T14:13:18.502Z,35.30
2018-06-27T14:15:47.238Z,34.70
2018-06-27T14:18:16.456Z,35.60
2018-06-27T14:20:45.983Z,36.00
2018-06-27T14:23:14.699Z,35.50
2018-06-27T14:25:44.511Z,35.30
2018-06-27T14:28:13.153Z,35.20
2018-06-27T14:30:41.871Z,35.80
2018-06-27T14:33:10.754Z,35.20
2018-06-27T14:35:39.345Z,33.70
2018-06-27T14:38:08.487Z,33.60
2018-06-27T14:40:37.067Z,33.10
2018-06-27T14:45:34.202Z,34.50
2018-06-27T14:48:02.780Z,33.50
2018-06-27T14:50:31.918Z,33.70
2018-06-27T14:53:00.901Z,32.70
2018-06-27T14:55:29.557Z,33.00
2018-06-27T14:57:58.346Z,32.60
2018-06-27T15:00:27.020Z,32.80
2018-06-27T15:02:55.971Z,31.60
2018-06-27T15:05:24.635Z,31.50
2018-06-27T15:07:53.740Z,32.30
2018-06-27T15:10:23.135Z,32.30
2018-06-27T15:15:20.258Z,32.20
2018-06-27T15:17:48.818Z,32.70
2018-06-27T15:20:17.768Z,33.60
2018-06-27T15:22:46.359Z,33.10
2018-06-27T15:25:15.474Z,33.10
2018-06-27T15:27:44.112Z,31.60
2018-06-27T15:30:14.106Z,31.90
2018-06-27T15:32:43.061Z,31.90
2018-06-27T15:35:13.497Z,32.40
2018-06-27T15:37:42.304Z,33.10
2018-06-27T15:40:11.023Z,33.10
2018-06-27T15:42:39.968Z,31.60
2018-06-27T15:45:08.811Z,32.10
2018-06-27T15:47:37.445Z,32.20
2018-06-27T15:50:06.491Z,33.00
2018-06-27T15:52:36.348Z,32.50
2018-06-27T15:55:06.178Z,32.50
2018-06-27T15:57:35.401Z,32.80
2018-06-27T16:00:04.251Z,33.00
2018-06-27T16:02:34.222Z,32.50
2018-06-27T16:05:02.941Z,33.00
2018-06-27T16:07:32.876Z,32.90
2018-06-27T16:10:01.885Z,33.30
2018-06-27T16:12:30.799Z,32.60
2018-06-27T16:14:59.534Z,34.20
2018-06-27T16:17:28.726Z,34.80
2018-06-27T16:19:57.092Z,35.40
2018-06-27T16:24:54.689Z,36.30
2018-06-27T16:27:23.556Z,36.70
2018-06-27T16:29:53.328Z,37.00
2018-06-27T16:32:22.151Z,37.30
2018-06-27T16:34:50.892Z,37.50
2018-06-27T16:39:48.605Z,38.00
2018-06-27T16:42:18.329Z,38.30
2018-06-27T16:44:46.999Z,38.20
2018-06-27T16:47:15.951Z,38.20
2018-06-27T16:49:44.853Z,38.20
2018-06-27T16:52:13.677Z,38.70
2018-06-27T16:54:42.429Z,38.40
2018-06-27T16:57:11.566Z,36.90
2018-06-27T16:59:41.056Z,38.40
2018-06-27T17:02:09.776Z,38.40
2018-06-27T17:04:39.637Z,38.60
2018-06-27T17:07:08.469Z,38.00
2018-06-27T17:09:37.070Z,38.50
2018-06-27T17:12:06.219Z,38.40
2018-06-27T17:14:35.286Z,38.10
2018-06-27T17:17:04.043Z,37.90
2018-06-27T17:19:32.857Z,38.50
2018-06-27T17:22:01.457Z,38.10
2018-06-27T17:24:30.304Z,38.40
2018-06-27T17:26:59.161Z,39.20
2018-06-27T17:29:27.781Z,38.50
2018-06-27T17:31:57.080Z,38.20
2018-06-27T17:34:25.823Z,37.90
2018-06-27T17:36:54.454Z,36.80
2018-06-27T17:39:23.392Z,37.60
2018-06-27T17:41:52.285Z,37.20
2018-06-27T17:44:21.032Z,36.80
2018-06-27T17:46:49.659Z,37.60
2018-06-27T17:49:18.496Z,38.00
2018-06-27T17:51:47.075Z,37.00
2018-06-27T17:56:44.637Z,36.50
2018-06-27T17:59:13.570Z,36.20
2018-06-27T18:01:43.322Z,37.10
2018-06-27T18:04:11.895Z,37.20
2018-06-27T18:06:40.442Z,37.40
2018-06-27T18:09:09.971Z,38.00
2018-06-27T18:11:39.628Z,38.00
2018-06-27T18:14:08.197Z,38.40
2018-06-27T18:16:36.776Z,38.80
2018-06-27T18:19:05.707Z,39.00
2018-06-27T18:24:03.152Z,39.50
2018-06-27T18:26:32.284Z,39.90
2018-06-27T18:29:00.886Z,39.60
2018-06-27T18:31:29.810Z,39.50
2018-06-27T18:34:00.472Z,39.80
2018-06-27T18:36:29.203Z,40.10
2018-06-27T18:38:57.975Z,40.00
2018-06-27T18:41:27.509Z,40.30
2018-06-27T18:43:56.191Z,41.00
2018-06-27T18:46:25.015Z,40.70
2018-06-27T18:48:53.735Z,41.00
2018-06-27T18:51:22.360Z,41.20
2018-06-27T18:53:51.048Z,41.30
2018-06-27T18:56:19.715Z,41.20
2018-06-27T18:58:48.288Z,41.40
2018-06-27T19:01:16.972Z,41.60
2018-06-27T19:03:45.807Z,41.80
2018-06-27T19:06:14.536Z,42.00
2018-06-27T19:08:43.389Z,42.20
2018-06-27T19:11:12.603Z,41.80
2018-06-27T19:13:41.160Z,41.90
2018-06-27T19:16:09.852Z,42.20
2018-06-27T19:18:38.845Z,42.30
2018-06-27T19:21:08.253Z,42.10
2018-06-27T19:23:36.938Z,42.30
2018-06-27T19:26:05.991Z,42.30
2018-06-27T19:28:34.571Z,42.30
2018-06-27T19:31:03.540Z,42.30
2018-06-27T19:33:32.124Z,42.20
2018-06-27T19:38:29.088Z,42.30
2018-06-27T19:40:57.866Z,42.30
2018-06-27T19:43:26.620Z,42.30
2018-06-27T19:45:55.225Z,42.60
2018-06-27T19:48:24.639Z,42.60
2018-06-27T19:50:53.210Z,42.50
2018-06-27T19:53:22.767Z,42.70
2018-06-27T19:55:52.519Z,42.70
2018-06-27T19:58:21.274Z,42.70
2018-06-27T20:00:51.117Z,42.30
2018-06-27T20:03:20.536Z,42.30
2018-06-27T20:05:49.109Z,43.00
2018-06-27T20:08:18.618Z,42.60
2018-06-27T20:10:47.405Z,42.50
2018-06-27T20:13:16.756Z,42.70
2018-06-27T20:15:45.383Z,42.70
2018-06-27T20:18:14.167Z,42.90
2018-06-27T20:20:43.334Z,43.00
2018-06-27T20:23:12.223Z,43.00
2018-06-27T20:25:40.833Z,43.10
2018-06-27T20:28:10.356Z,43.10
2018-06-27T20:30:39.095Z,43.20
2018-06-27T20:33:08.057Z,43.20
2018-06-27T20:35:38.620Z,43.20
2018-06-27T20:38:07.559Z,43.00
2018-06-27T20:40:36.477Z,43.10
2018-06-27T20:43:05.739Z,43.40
2018-06-27T20:45:34.592Z,43.10
2018-06-27T20:48:03.486Z,43.50
2018-06-27T20:53:00.700Z,43.50
2018-06-27T20:55:30.091Z,43.50
2018-06-27T20:57:59.264Z,43.70
2018-06-27T21:00:28.136Z,43.60
2018-06-27T21:02:57.233Z,43.50
2018-06-27T21:05:26.138Z,43.50
2018-06-27T21:07:54.847Z,43.60
2018-06-27T21:10:23.565Z,43.50
2018-06-27T21:12:52.712Z,43.70
2018-06-27T21:15:21.824Z,43.80
2018-06-27T21:17:50.510Z,44.00
2018-06-27T21:20:19.185Z,44.20
2018-06-27T21:22:48.025Z,44.20
2018-06-27T21:25:16.652Z,44.30
2018-06-27T21:27:45.455Z,44.40
2018-06-27T21:30:14.089Z,44.40
2018-06-27T21:32:42.916Z,44.50
2018-06-27T21:35:11.520Z,44.60
2018-06-27T21:37:40.494Z,44.80
2018-06-27T21:40:09.584Z,44.80
2018-06-27T21:42:38.363Z,44.70
2018-06-27T21:45:07.361Z,44.80
2018-06-27T21:47:35.976Z,44.70
2018-06-27T21:50:04.748Z,44.80
2018-06-27T21:52:33.329Z,44.80
2018-06-27T21:55:02.220Z,45.30
2018-06-27T21:57:30.790Z,45.60
2018-06-27T21:59:59.428Z,46.00
2018-06-27T22:02:28.057Z,46.00
2018-06-27T22:07:24.898Z,46.20
2018-06-27T22:09:53.667Z,46.30
2018-06-27T22:12:22.298Z,46.50
2018-06-27T22:14:50.881Z,46.60
2018-06-27T22:17:19.671Z,46.60
2018-06-27T22:19:48.307Z,46.90
2018-06-27T22:22:16.911Z,47.10
2018-06-27T22:24:45.609Z,47.10
2018-06-27T22:29:43.638Z,47.10
2018-06-27T22:32:12.303Z,47.30
2018-06-27T22:34:41.093Z,47.80
2018-06-27T22:37:09.749Z,47.90
2018-06-27T22:39:38.345Z,48.00
2018-06-27T22:42:06.999Z,48.20
2018-06-27T22:44:35.619Z,48.40
2018-06-27T22:47:04.453Z,48.80
2018-06-27T22:49:33.374Z,48.80
2018-06-27T22:52:02.072Z,48.80
2018-06-27T22:54:30.602Z,48.70
2018-06-27T22:56:59.221Z,49.50
2018-06-27T22:59:27.883Z,49.10
2018-06-27T23:01:57.519Z,49.20
2018-06-27T23:04:26.206Z,49.20
2018-06-27T23:06:54.803Z,49.30
2018-06-27T23:09:23.655Z,49.40
2018-06-27T23:11:52.588Z,49.30
2018-06-27T23:14:21.231Z,49.70
2018-06-27T23:16:50.522Z,49.80
2018-06-27T23:19:19.272Z,50.00
2018-06-27T23:21:47.951Z,50.10
2018-06-27T23:24:16.559Z,50.00
2018-06-27T23:26:45.125Z,50.00
2018-06-27T23:29:13.919Z,50.10
2018-06-27T23:34:11.854Z,50.40
2018-06-27T23:36:41.491Z,50.60
2018-06-27T23:41:41.277Z,50.80
2018-06-27T23:44:10.087Z,50.70
2018-06-27T23:46:39.340Z,50.80
2018-06-27T23:51:36.952Z,50.80
2018-06-27T23:54:06.106Z,50.70
2018-06-27T23:56:34.847Z,50.80
2018-06-27T23:59:03.736Z,50.80
